Time;durP1;ratioP1;P1;durP2;ratioP2;P2;SDS_P1;SDS_P2;PMS_P1;PMS_P2;Temp;Humidity;BMP_temperature;BMP_pressure;BME280_temperature;BME280_humidity;BME280_pressure;Samples;Min_cycle;Max_cycle;Signal;HPM_P1;HPM_P2
2023/03/08 00:00:39;;;;;;;24.57;11.10;;;1.20;99.90;;;;;;5071766;28;20392;-50
2023/03/08 00:03:05;;;;;;;26.60;12.33;;;1.20;99.90;;;;;;5071926;28;20033;-51
2023/03/08 00:05:31;;;;;;;27.47;11.40;;;1.20;99.90;;;;;;5071705;28;20036;-55
2023/03/08 00:07:57;;;;;;;24.90;11.30;;;1.20;99.90;;;;;;5071436;28;20032;-51
2023/03/08 00:10:23;;;;;;;22.60;10.57;;;1.20;99.90;;;;;;5071534;28;20032;-53
2023/03/08 00:12:49;;;;;;;22.23;10.43;;;1.20;99.90;;;;;;5071629;28;20028;-54
2023/03/08 00:15:14;;;;;;;21.80;10.13;;;1.20;99.90;;;;;;5071423;28;20054;-51
2023/03/08 00:17:40;;;;;;;20.17;9.73;;;1.20;99.90;;;;;;5070508;28;20267;-53
2023/03/08 00:20:09;;;;;;;20.50;10.23;;;1.20;99.90;;;;;;5071399;28;20036;-53
2023/03/08 00:22:39;;;;;;;24.40;10.73;;;1.20;99.90;;;;;;5071373;28;20519;-54
2023/03/08 00:25:07;;;;;;;18.30;9.77;;;1.20;99.90;;;;;;5071109;28;20032;-54
2023/03/08 00:27:34;;;;;;;22.20;10.60;;;1.20;99.90;;;;;;5071168;28;20048;-50
2023/03/08 00:30:00;;;;;;;23.63;10.93;;;1.20;99.90;;;;;;5071174;28;20067;-53
2023/03/08 00:32:28;;;;;;;23.30;10.73;;;1.20;99.90;;;;;;5071301;28;20054;-53
2023/03/08 00:34:54;;;;;;;21.17;10.50;;;1.20;99.90;;;;;;5071399;28;20124;-54
2023/03/08 00:37:21;;;;;;;22.23;10.37;;;1.30;99.90;;;;;;5052906;28;20115;-53
2023/03/08 00:39:51;;;;;;;20.67;9.77;;;1.20;99.90;;;;;;5071379;28;20021;-52
2023/03/08 00:42:17;;;;;;;25.50;11.07;;;1.20;99.90;;;;;;5053293;28;20123;-52
2023/03/08 00:44:43;;;;;;;21.53;10.80;;;1.30;99.90;;;;;;5070777;28;20040;-53
2023/03/08 00:47:10;;;;;;;23.77;11.47;;;1.20;99.90;;;;;;5052833;28;20040;-54
2023/03/08 00:49:36;;;;;;;21.27;11.33;;;1.20;99.90;;;;;;5052873;28;20485;-52
2023/03/08 00:52:02;;;;;;;23.23;11.60;;;1.20;99.90;;;;;;5052953;28;20029;-53
2023/03/08 00:54:28;;;;;;;25.40;11.00;;;1.20;99.90;;;;;;5070676;28;20055;-53
2023/03/08 00:56:54;;;;;;;23.07;10.77;;;1.20;99.90;;;;;;5070630;28;20481;-50
2023/03/08 00:59:20;;;;;;;24.07;10.93;;;1.20;99.90;;;;;;5070967;28;20040;-51
2023/03/08 01:01:46;;;;;;;23.37;10.73;;;1.30;99.90;;;;;;5070915;28;20020;-54
2023/03/08 01:04:13;;;;;;;23.33;11.27;;;1.30;99.90;;;;;;5070588;28;20389;-54
2023/03/08 01:06:39;;;;;;;22.37;11.33;;;1.30;99.90;;;;;;5052452;28;20031;-51
2023/03/08 01:09:10;;;;;;;23.17;11.00;;;1.30;99.90;;;;;;5052706;28;20032;-50
2023/03/08 01:11:37;;;;;;;27.63;11.90;;;1.30;99.90;;;;;;5070687;28;20028;-54
2023/03/08 01:14:07;;;;;;;28.10;12.50;;;1.30;99.90;;;;;;5052428;28;20032;-51
2023/03/08 01:16:34;;;;;;;21.33;11.07;;;1.30;99.90;;;;;;5070442;28;20496;-54
2023/03/08 01:19:02;;;;;;;20.00;10.50;;;1.30;99.90;;;;;;5070408;28;20028;-53
2023/03/08 01:21:30;;;;;;;22.60;10.57;;;1.30;99.90;;;;;;5070489;28;20036;-54
2023/03/08 01:23:56;;;;;;;21.67;10.67;;;1.30;99.90;;;;;;5070292;28;20107;-50
2023/03/08 01:26:24;;;;;;;22.10;11.00;;;1.30;99.90;;;;;;5052336;28;20211;-51
2023/03/08 01:28:50;;;;;;;23.47;11.27;;;1.30;99.90;;;;;;5070401;28;20028;-54
2023/03/08 01:31:19;;;;;;;26.00;12.00;;;1.20;99.90;;;;;;5052428;28;20538;-55
2023/03/08 01:33:45;;;;;;;25.02;10.95;;;1.20;99.90;;;;;;5052139;28;20037;-54
2023/03/08 01:36:16;;;;;;;23.90;10.90;;;1.20;99.90;;;;;;5052274;28;20048;-54
2023/03/08 01:38:44;;;;;;;25.43;10.77;;;1.10;99.90;;;;;;5052131;28;20035;-54
2023/03/08 01:41:19;;;;;;;26.67;11.80;;;1.20;99.90;;;;;;5070614;28;20460;-54
2023/03/08 01:43:46;;;;;;;24.43;11.57;;;1.20;99.90;;;;;;5052100;28;20060;-51
2023/03/08 01:46:20;;;;;;;26.53;11.53;;;1.10;99.90;;;;;;5052409;28;20480;-55
2023/03/08 01:48:49;;;;;;;26.50;11.87;;;1.10;99.90;;;;;;5052135;28;20032;-52
2023/03/08 01:51:27;;;;;;;27.97;11.63;;;1.10;99.90;;;;;;5052167;28;20032;-53
2023/03/08 01:53:54;;;;;;;23.87;11.30;;;1.10;99.90;;;;;;5052129;28;20036;-54
2023/03/08 01:56:21;;;;;;;23.87;10.70;;;1.10;99.90;;;;;;5052081;28;20393;-53
2023/03/08 01:58:49;;;;;;;22.50;10.43;;;1.10;99.90;;;;;;5069907;28;20033;-53
2023/03/08 02:01:17;;;;;;;22.50;10.80;;;1.10;99.90;;;;;;5070118;28;20029;-50
2023/03/08 02:03:45;;;;;;;24.20;9.93;;;1.00;99.90;;;;;;5051945;28;20492;-53
2023/03/08 02:06:13;;;;;;;22.30;10.60;;;1.10;99.90;;;;;;5052146;28;20086;-51
2023/03/08 02:08:39;;;;;;;22.13;10.60;;;1.10;99.90;;;;;;5051888;28;20115;-50
2023/03/08 02:11:06;;;;;;;22.30;10.10;;;1.10;99.90;;;;;;5069984;28;20025;-53
2023/03/08 02:13:32;;;;;;;20.97;10.50;;;1.00;99.90;;;;;;5051734;28;20496;-53
2023/03/08 02:16:01;;;;;;;23.77;9.93;;;0.90;99.90;;;;;;5052056;28;20062;-49
2023/03/08 02:18:27;;;;;;;20.63;10.32;;;1.00;99.90;;;;;;5051786;28;20033;-50
2023/03/08 02:20:53;;;;;;;20.60;10.33;;;1.00;99.90;;;;;;5051850;28;20370;-51
2023/03/08 02:23:22;;;;;;;22.17;10.80;;;1.00;99.90;;;;;;5069792;28;20481;-52
2023/03/08 02:26:02;;;;;;;25.30;10.97;;;1.00;99.90;;;;;;5069891;28;20492;-54
2023/03/08 02:28:29;;;;;;;21.13;9.87;;;1.00;99.90;;;;;;5069547;28;20493;-53
2023/03/08 02:30:55;;;;;;;21.03;10.17;;;1.00;99.90;;;;;;5051736;28;20025;-53
2023/03/08 02:33:22;;;;;;;20.17;9.23;;;1.00;99.90;;;;;;5069824;28;20040;-51
2023/03/08 02:35:48;;;;;;;18.90;9.90;;;1.00;99.90;;;;;;5051896;28;20044;-53
2023/03/08 02:38:16;;;;;;;21.53;9.93;;;1.00;99.90;;;;;;5069814;28;20043;-53
2023/03/08 02:40:42;;;;;;;18.37;9.73;;;1.00;99.90;;;;;;5070135;28;20028;-53
2023/03/08 02:43:08;;;;;;;21.20;10.17;;;1.10;99.90;;;;;;5073429;28;20032;-51
2023/03/08 02:45:34;;;;;;;22.97;10.10;;;1.00;99.90;;;;;;5055359;28;20070;-54
2023/03/08 02:48:02;;;;;;;20.13;9.33;;;1.00;99.90;;;;;;5072877;28;20039;-52
2023/03/08 02:50:30;;;;;;;19.30;8.98;;;1.10;99.90;;;;;;5055140;28;20042;-53
2023/03/08 02:52:57;;;;;;;18.53;8.97;;;1.10;99.90;;;;;;5072987;28;20024;-52
2023/03/08 02:55:24;;;;;;;19.40;8.43;;;1.20;99.90;;;;;;5073014;28;20028;-53
2023/03/08 02:57:50;;;;;;;18.73;8.60;;;1.20;99.90;;;;;;5054792;28;20489;-51
2023/03/08 03:00:18;;;;;;;15.53;8.03;;;1.20;99.90;;;;;;5054868;28;20020;-53
2023/03/08 03:02:43;;;;;;;15.50;8.27;;;1.20;99.90;;;;;;5054927;28;20498;-50
2023/03/08 03:05:11;;;;;;;19.80;9.70;;;1.20;99.90;;;;;;5072737;28;20458;-52
2023/03/08 03:07:41;;;;;;;16.88;9.30;;;1.20;99.90;;;;;;5054654;28;20024;-52
2023/03/08 03:10:12;;;;;;;23.33;10.57;;;1.10;99.90;;;;;;5054710;28;20086;-52
2023/03/08 03:12:39;;;;;;;30.27;10.77;;;1.10;99.90;;;;;;5054847;28;20135;-54
2023/03/08 03:15:08;;;;;;;;;;;1.20;99.90;;;;;;5055186;28;20063;-52
2023/03/08 03:17:35;;;;;;;21.40;9.47;;;1.20;99.90;;;;;;5054433;28;19913;-53
2023/03/08 03:20:02;;;;;;;23.23;11.50;;;1.30;99.90;;;;;;5054469;28;20032;-52
2023/03/08 03:22:28;;;;;;;22.30;10.80;;;1.20;99.90;;;;;;5072653;28;20035;-55
2023/03/08 03:24:53;;;;;;;22.73;11.00;;;1.20;99.90;;;;;;5054485;28;20435;-54
2023/03/08 03:27:19;;;;;;;23.30;11.07;;;1.20;99.90;;;;;;5054287;28;20028;-54
2023/03/08 03:29:47;;;;;;;21.97;11.53;;;1.20;99.90;;;;;;5054286;28;20480;-53
2023/03/08 03:32:15;;;;;;;25.30;11.03;;;1.10;99.90;;;;;;5054414;28;20075;-54
2023/03/08 03:34:42;;;;;;;25.97;11.90;;;1.10;99.90;;;;;;5054170;28;20032;-53
2023/03/08 03:37:08;;;;;;;25.70;11.63;;;1.10;99.90;;;;;;5054150;28;20082;-54
2023/03/08 03:39:39;;;;;;;23.37;11.53;;;1.10;99.90;;;;;;5054125;28;20025;-50
2023/03/08 03:42:07;;;;;;;26.70;11.80;;;1.10;99.90;;;;;;5054159;28;20048;-54
2023/03/08 03:44:35;;;;;;;26.30;12.33;;;1.10;99.90;;;;;;5054112;28;20110;-52
2023/03/08 03:47:02;;;;;;;24.73;11.77;;;1.10;99.90;;;;;;5071792;28;20052;-53
2023/03/08 03:49:29;;;;;;;28.10;13.53;;;1.10;99.90;;;;;;5053705;28;20028;-52
2023/03/08 03:51:55;;;;;;;30.77;13.53;;;1.00;99.90;;;;;;5053930;28;20511;-51
2023/03/08 03:54:25;;;;;;;29.67;14.00;;;1.00;99.90;;;;;;5053916;28;20075;-49
2023/03/08 03:56:51;;;;;;;25.20;12.37;;;1.00;99.90;;;;;;5053908;28;20039;-54
2023/03/08 03:59:20;;;;;;;;;;;1.10;99.90;;;;;;5054317;28;20116;-51
2023/03/08 04:01:46;;;;;;;28.77;13.20;;;1.10;99.90;;;;;;5053873;28;20289;-51
2023/03/08 04:04:31;;;;;;;29.17;13.70;;;1.00;99.90;;;;;;5053696;28;20081;-54
2023/03/08 04:06:57;;;;;;;30.13;14.43;;;1.00;99.90;;;;;;5071454;28;20489;-54
2023/03/08 04:09:27;;;;;;;27.87;13.47;;;1.00;99.90;;;;;;5053436;28;20025;-54
2023/03/08 04:12:04;;;;;;;32.07;15.13;;;1.00;99.90;;;;;;5053505;28;20489;-53
2023/03/08 04:14:32;;;;;;;30.03;14.23;;;1.00;99.90;;;;;;5053403;28;20113;-52
2023/03/08 04:16:58;;;;;;;29.57;13.43;;;1.00;99.90;;;;;;5053306;28;20060;-53
2023/03/08 04:19:37;;;;;;;28.67;13.52;;;1.00;99.90;;;;;;5038878;28;20028;-55
2023/03/08 04:22:03;;;;;;;33.27;15.30;;;1.00;99.90;;;;;;5071380;28;20021;-49
2023/03/08 04:24:35;;;;;;;34.67;16.07;;;1.00;99.90;;;;;;5053206;28;20035;-51
2023/03/08 04:27:05;;;;;;;31.87;15.20;;;1.00;99.90;;;;;;5071612;28;20036;-52
2023/03/08 04:29:31;;;;;;;37.07;15.80;;;1.00;99.90;;;;;;5053185;28;20366;-53
2023/03/08 04:31:59;;;;;;;29.40;14.73;;;1.00;99.90;;;;;;5053263;28;20029;-54
2023/03/08 04:34:29;;;;;;;35.97;15.00;;;0.90;99.90;;;;;;5053030;28;20389;-53
2023/03/08 04:36:55;;;;;;;35.03;15.73;;;0.90;99.90;;;;;;5052988;28;20028;-52
2023/03/08 04:39:22;;;;;;;41.07;16.67;;;0.90;99.90;;;;;;5052839;28;20028;-55
2023/03/08 04:41:48;;;;;;;37.23;16.53;;;0.90;99.90;;;;;;5053206;28;20028;-51
2023/03/08 04:44:29;;;;;;;36.20;16.33;;;0.90;99.90;;;;;;5052909;28;20029;-52
2023/03/08 04:46:55;;;;;;;33.30;14.53;;;1.00;99.90;;;;;;5052848;28;20500;-53
2023/03/08 04:49:28;;;;;;;34.83;15.83;;;1.00;99.90;;;;;;5066839;22;20028;-51
2023/03/08 04:51:58;;;;;;;37.30;16.83;;;0.90;99.90;;;;;;5052883;28;20066;-50
2023/03/08 04:54:24;;;;;;;37.20;16.97;;;0.90;99.90;;;;;;5052339;28;20048;-51
2023/03/08 04:56:57;;;;;;;40.97;17.57;;;0.90;99.90;;;;;;5052674;28;20024;-50
2023/03/08 04:59:24;;;;;;;36.77;16.10;;;0.90;99.90;;;;;;5055066;28;20333;-48
2023/03/08 05:01:53;;;;;;;34.70;15.80;;;0.90;99.90;;;;;;5072699;28;20035;-51
2023/03/08 05:04:20;;;;;;;40.97;17.77;;;1.00;99.90;;;;;;5071995;28;20527;-51
2023/03/08 05:06:46;;;;;;;35.07;15.93;;;1.00;99.90;;;;;;5090615;28;20024;-48
2023/03/08 05:09:17;;;;;;;38.67;17.50;;;0.90;99.90;;;;;;5072384;28;20111;-51
2023/03/08 05:11:46;;;;;;;42.42;17.73;;;1.00;99.90;;;;;;5090793;28;20030;-50
2023/03/08 05:14:13;;;;;;;39.40;16.63;;;1.00;99.90;;;;;;5072299;28;20492;-47
2023/03/08 05:16:39;;;;;;;37.70;17.20;;;1.00;99.90;;;;;;5072343;28;20115;-50
2023/03/08 05:19:05;;;;;;;39.30;17.33;;;1.00;99.90;;;;;;5090533;28;20031;-48
2023/03/08 05:21:36;;;;;;;37.00;17.27;;;0.90;99.90;;;;;;5072705;28;20111;-51
2023/03/08 05:24:02;;;;;;;40.17;17.43;;;0.90;99.90;;;;;;5090481;28;20544;-51
2023/03/08 05:26:31;;;;;;;36.65;16.40;;;0.90;99.90;;;;;;5072202;28;20028;-51
2023/03/08 05:29:02;;;;;;;39.70;18.27;;;0.90;99.90;;;;;;5072325;28;20550;-50
2023/03/08 05:31:28;;;;;;;41.10;17.97;;;0.90;99.90;;;;;;5072244;28;20036;-52
2023/03/08 05:33:56;;;;;;;40.63;17.50;;;0.90;99.90;;;;;;5072236;28;20032;-49
2023/03/08 05:36:32;;;;;;;36.93;16.93;;;0.90;99.90;;;;;;5090386;28;20392;-50
2023/03/08 05:38:59;;;;;;;37.53;17.13;;;0.90;99.90;;;;;;5072266;28;20484;-50
2023/03/08 05:41:33;;;;;;;39.80;17.27;;;0.90;99.90;;;;;;5072397;28;20115;-51
2023/03/08 05:44:01;;;;;;;40.03;17.73;;;0.90;99.90;;;;;;5072146;28;20111;-49
2023/03/08 05:46:29;;;;;;;40.85;18.13;;;0.80;99.90;;;;;;5072107;28;20093;-50
2023/03/08 05:48:55;;;;;;;38.20;17.33;;;0.80;99.90;;;;;;5072262;28;20488;-50
2023/03/08 05:51:20;;;;;;;40.10;17.37;;;0.70;99.90;;;;;;5071901;28;20028;-50
2023/03/08 05:53:47;;;;;;;42.73;18.40;;;0.70;99.90;;;;;;5090095;28;20044;-51
2023/03/08 05:56:22;;;;;;;41.77;16.70;;;0.80;99.90;;;;;;5072062;28;20494;-51
2023/03/08 05:59:12;;;;;;;39.03;16.30;;;0.80;99.90;;;;;;5089617;28;20036;-48
2023/03/08 06:01:38;;;;;;;36.20;14.53;;;0.70;99.90;;;;;;5090246;28;20020;-49
2023/03/08 06:04:14;;;;;;;38.50;15.60;;;0.70;99.90;;;;;;5072008;28;20512;-53
2023/03/08 06:06:42;;;;;;;37.20;15.68;;;0.60;99.90;;;;;;5071858;28;20027;-53
2023/03/08 06:09:08;;;;;;;35.87;14.77;;;0.60;99.90;;;;;;5071905;28;20089;-52
2023/03/08 06:11:37;;;;;;;32.40;13.73;;;0.60;99.90;;;;;;5072134;28;20400;-51
2023/03/08 06:14:04;;;;;;;30.97;11.57;;;0.60;99.90;;;;;;5071791;28;20082;-50
2023/03/08 06:16:32;;;;;;;30.53;12.83;;;0.50;99.90;;;;;;5073275;28;20066;-51
2023/03/08 06:18:59;;;;;;;24.67;9.60;;;0.50;99.90;;;;;;5093842;28;20060;-51
2023/03/08 06:21:25;;;;;;;23.17;8.60;;;0.50;99.90;;;;;;5075603;28;20024;-50
2023/03/08 06:23:57;;;;;;;22.87;9.53;;;0.40;99.90;;;;;;5075622;28;20028;-52
2023/03/08 06:26:23;;;;;;;22.67;9.90;;;0.40;99.90;;;;;;5075420;28;20077;-51
2023/03/08 06:28:49;;;;;;;21.20;8.77;;;0.40;99.90;;;;;;5075485;28;20374;-51
2023/03/08 06:31:17;;;;;;;26.47;10.27;;;0.40;99.90;;;;;;5075500;28;20036;-50
2023/03/08 06:33:42;;;;;;;23.63;8.73;;;0.40;99.90;;;;;;5075135;28;20066;-52
2023/03/08 06:36:18;;;;;;;19.23;8.03;;;0.40;99.90;;;;;;5075502;28;20399;-52
2023/03/08 06:38:46;;;;;;;20.53;8.53;;;0.30;99.90;;;;;;5075182;28;20093;-50
2023/03/08 06:41:13;;;;;;;23.40;8.30;;;0.30;99.90;;;;;;5075215;28;20023;-49
2023/03/08 06:43:41;;;;;;;18.83;7.90;;;0.30;99.90;;;;;;5093253;28;20034;-49
2023/03/08 06:46:10;;;;;;;18.70;7.77;;;0.30;99.90;;;;;;5075294;28;20557;-49
2023/03/08 06:48:36;;;;;;;17.15;7.32;;;0.30;99.90;;;;;;5074924;28;20027;-50
2023/03/08 06:51:04;;;;;;;18.73;7.13;;;0.30;99.90;;;;;;5075071;28;20036;-52
2023/03/08 06:53:30;;;;;;;14.43;5.60;;;0.30;99.90;;;;;;5074881;28;20067;-51
2023/03/08 06:56:02;;;;;;;16.57;6.13;;;0.30;99.90;;;;;;5074946;28;20122;-52
2023/03/08 06:58:30;;;;;;;14.00;6.18;;;0.30;99.90;;;;;;5074785;28;20032;-50
2023/03/08 07:00:58;;;;;;;15.77;6.47;;;0.20;99.90;;;;;;5092927;28;20547;-51
2023/03/08 07:03:24;;;;;;;17.50;5.87;;;0.20;99.90;;;;;;5094737;28;20024;-52
2023/03/08 07:05:50;;;;;;;15.40;5.73;;;0.20;99.90;;;;;;5095140;28;20476;-52
2023/03/08 07:08:16;;;;;;;15.27;5.87;;;0.20;99.90;;;;;;5095131;28;20083;-52
2023/03/08 07:10:42;;;;;;;20.63;6.37;;;0.10;99.90;;;;;;5092880;28;20071;-48
2023/03/08 07:13:07;;;;;;;15.10;5.77;;;0.10;99.90;;;;;;5092939;28;20438;-52
2023/03/08 07:15:33;;;;;;;15.30;5.80;;;0.10;99.90;;;;;;5092665;28;20559;-48
2023/03/08 07:17:59;;;;;;;18.40;5.90;;;0.20;99.90;;;;;;5092680;28;20036;-51
2023/03/08 07:20:26;;;;;;;12.83;5.07;;;0.20;99.90;;;;;;5092692;28;20024;-50
2023/03/08 07:22:53;;;;;;;14.37;5.83;;;0.20;99.90;;;;;;5092736;28;20039;-52
2023/03/08 07:25:20;;;;;;;13.97;5.33;;;0.20;99.90;;;;;;5092414;28;20032;-52
2023/03/08 07:27:46;;;;;;;12.20;5.30;;;0.20;99.90;;;;;;5091883;28;20035;-52
2023/03/08 07:30:14;;;;;;;12.63;5.17;;;0.10;99.90;;;;;;5092303;28;20023;-52
2023/03/08 07:32:43;;;;;;;12.17;5.63;;;0.20;99.90;;;;;;5092438;28;20040;-51
2023/03/08 07:35:11;;;;;;;12.60;5.27;;;0.20;99.90;;;;;;5092678;28;20039;-51
2023/03/08 07:37:37;;;;;;;13.87;5.53;;;0.20;99.90;;;;;;5092011;28;20469;-53
2023/03/08 07:40:04;;;;;;;12.47;5.53;;;0.20;99.90;;;;;;5092203;28;20565;-52
2023/03/08 07:42:30;;;;;;;15.70;5.10;;;0.20;99.90;;;;;;5092146;28;20099;-54
2023/03/08 07:45:01;;;;;;;13.00;5.07;;;0.30;99.90;;;;;;5073865;28;20031;-51
2023/03/08 07:47:26;;;;;;;14.73;4.93;;;0.30;99.90;;;;;;5091974;28;20028;-51
2023/03/08 07:49:52;;;;;;;12.17;4.83;;;0.30;99.90;;;;;;5092196;28;20059;-53
2023/03/08 07:52:18;;;;;;;12.27;4.70;;;0.30;99.90;;;;;;5092033;28;20495;-52
2023/03/08 07:54:43;;;;;;;10.27;4.07;;;0.30;99.90;;;;;;5091733;28;20024;-52
2023/03/08 07:57:13;;;;;;;11.33;4.00;;;0.20;99.90;;;;;;5091677;28;20563;-52
2023/03/08 07:59:39;;;;;;;11.00;4.03;;;0.20;99.90;;;;;;5091953;28;20021;-51
2023/03/08 08:02:05;;;;;;;10.30;4.53;;;0.10;99.90;;;;;;5091860;28;20081;-50
2023/03/08 08:04:34;;;;;;;11.23;3.97;;;0.10;99.90;;;;;;5091663;28;20028;-52
2023/03/08 08:06:59;;;;;;;11.37;3.87;;;0.10;99.90;;;;;;5091635;28;20028;-53
2023/03/08 08:09:25;;;;;;;12.20;4.40;;;0.10;99.90;;;;;;5091531;28;20399;-52
2023/03/08 08:11:51;;;;;;;12.77;4.57;;;0.10;99.90;;;;;;5091529;28;20060;-51
2023/03/08 08:14:16;;;;;;;12.10;4.20;;;0.10;99.90;;;;;;5091624;28;20074;-52
2023/03/08 08:16:42;;;;;;;9.37;4.07;;;0.10;99.90;;;;;;5091314;28;20038;-52
2023/03/08 08:19:10;;;;;;;10.43;4.30;;;0.20;99.90;;;;;;5091496;28;20028;-54
2023/03/08 08:21:35;;;;;;;11.63;4.10;;;0.10;99.90;;;;;;5091485;28;20104;-53
2023/03/08 08:24:01;;;;;;;8.17;3.57;;;0.20;99.90;;;;;;5091247;28;20124;-55
2023/03/08 08:26:27;;;;;;;10.20;3.60;;;0.20;99.90;;;;;;5091093;28;20480;-53
2023/03/08 08:28:53;;;;;;;8.57;4.13;;;0.20;99.90;;;;;;5091231;28;20475;-56
2023/03/08 08:31:21;;;;;;;8.60;3.90;;;0.20;99.90;;;;;;5091303;28;20039;-56
2023/03/08 08:33:48;;;;;;;14.37;7.37;;;0.10;99.90;;;;;;5091034;28;20118;-54
2023/03/08 08:36:16;;;;;;;9.27;4.07;;;0.10;99.90;;;;;;5091377;28;20046;-54
2023/03/08 08:38:42;;;;;;;7.40;4.13;;;0.10;99.90;;;;;;5090060;28;20123;-51
2023/03/08 08:41:08;;;;;;;9.47;4.23;;;0.10;99.90;;;;;;5091159;28;20028;-52
2023/03/08 08:43:35;;;;;;;6.83;3.67;;;0.10;99.90;;;;;;5090994;28;20097;-52
2023/03/08 08:46:01;;;;;;;7.70;3.30;;;0.10;99.90;;;;;;5091095;28;20024;-52
2023/03/08 08:48:27;;;;;;;7.87;3.23;;;0.10;99.90;;;;;;5090712;28;20047;-53
2023/03/08 08:50:54;;;;;;;8.10;3.57;;;0.10;99.90;;;;;;5090764;28;20032;-51
2023/03/08 08:53:20;;;;;;;8.60;4.00;;;0.00;99.90;;;;;;5090686;28;20027;-53
2023/03/08 08:55:46;;;;;;;12.50;4.20;;;0.00;99.90;;;;;;5091159;28;20044;-53
2023/03/08 08:58:12;;;;;;;8.00;3.80;;;0.10;99.90;;;;;;5072689;28;20034;-52
2023/03/08 09:00:38;;;;;;;7.33;3.97;;;0.10;99.90;;;;;;5090761;28;20020;-53
2023/03/08 09:03:05;;;;;;;9.77;4.00;;;0.10;99.90;;;;;;5091077;28;20464;-53
2023/03/08 09:05:32;;;;;;;8.57;3.97;;;0.00;99.90;;;;;;5090593;28;20032;-52
2023/03/08 09:07:59;;;;;;;9.07;3.40;;;0.00;99.90;;;;;;5090399;28;20038;-52
2023/03/08 09:10:27;;;;;;;9.57;3.80;;;0.00;99.90;;;;;;5090503;28;20548;-53
2023/03/08 09:12:53;;;;;;;9.33;3.23;;;0.00;99.90;;;;;;5090670;28;20050;-52
2023/03/08 09:15:20;;;;;;;7.90;3.10;;;0.10;99.90;;;;;;5090423;28;20028;-53
2023/03/08 09:17:46;;;;;;;9.00;3.40;;;0.10;99.90;;;;;;5090216;28;20073;-53
2023/03/08 09:20:12;;;;;;;6.40;3.37;;;0.10;99.90;;;;;;5090476;28;20070;-52
2023/03/08 09:22:39;;;;;;;6.80;3.13;;;0.10;99.90;;;;;;5090838;28;20031;-53
2023/03/08 09:25:09;;;;;;;7.63;3.70;;;0.10;99.90;;;;;;5090303;28;20103;-52
2023/03/08 09:27:36;;;;;;;7.47;4.07;;;0.10;99.90;;;;;;5090183;28;20090;-53
2023/03/08 09:30:01;;;;;;;8.10;4.27;;;0.20;99.90;;;;;;5090555;28;20042;-51
2023/03/08 09:32:27;;;;;;;9.20;4.30;;;0.30;99.90;;;;;;5090411;28;20393;-52
2023/03/08 09:34:53;;;;;;;9.23;3.93;;;0.20;99.90;;;;;;5090132;28;20029;-51
2023/03/08 09:37:19;;;;;;;10.17;4.70;;;0.20;99.90;;;;;;5089960;28;20397;-52
2023/03/08 09:39:45;;;;;;;8.27;4.00;;;0.20;99.90;;;;;;5090317;28;20374;-49
2023/03/08 09:42:26;;;;;;;8.90;4.10;;;0.20;99.90;;;;;;5090580;28;20032;-49
2023/03/08 09:45:25;;;;;;;8.37;3.93;;;0.20;99.90;;;;;;5089981;28;20447;-50
2023/03/08 09:48:17;;;;;;;8.38;3.65;;;0.20;99.90;;;;;;5090032;28;20032;-51
2023/03/08 09:50:50;;;;;;;8.30;3.83;;;0.20;99.90;;;;;;5092195;28;20047;-52
2023/03/08 09:53:36;;;;;;;8.53;3.90;;;0.20;99.90;;;;;;5094366;28;20392;-50
2023/03/08 09:56:11;;;;;;;8.27;3.77;;;0.20;99.90;;;;;;5094283;28;20039;-49
2023/03/08 09:58:47;;;;;;;8.90;4.10;;;0.20;99.90;;;;;;5093894;28;20043;-50
2023/03/08 10:01:50;;;;;;;7.67;4.03;;;0.20;99.90;;;;;;5094301;28;20025;-51
2023/03/08 10:04:32;;;;;;;11.70;5.37;;;0.30;99.90;;;;;;5093940;28;20090;-51
2023/03/08 10:07:36;;;;;;;9.53;5.03;;;0.30;99.90;;;;;;5093905;28;20024;-51
2023/03/08 10:10:29;;;;;;;8.10;5.03;;;0.30;99.90;;;;;;5094437;28;20032;-50
2023/03/08 10:13:07;;;;;;;8.77;5.10;;;0.30;99.90;;;;;;5094266;28;20051;-49
2023/03/08 10:15:40;;;;;;;9.20;5.10;;;0.30;99.90;;;;;;5093839;28;20040;-51
2023/03/08 10:18:28;;;;;;;12.00;5.93;;;0.30;99.90;;;;;;5093929;28;20519;-49
2023/03/08 10:20:55;;;;;;;12.87;5.73;;;0.20;99.90;;;;;;5093595;28;20024;-51
2023/03/08 10:23:22;;;;;;;8.90;5.10;;;0.20;99.90;;;;;;5093604;28;20032;-51
2023/03/08 10:25:49;;;;;;;11.03;5.83;;;0.30;99.90;;;;;;5093696;28;20024;-50
2023/03/08 10:28:22;;;;;;;11.63;5.23;;;0.30;99.90;;;;;;5093797;28;20436;-52
2023/03/08 10:30:55;;;;;;;7.83;4.90;;;0.30;99.90;;;;;;5093538;28;20027;-50
2023/03/08 10:33:23;;;;;;;9.17;5.43;;;0.30;99.90;;;;;;5093917;28;20120;-51
2023/03/08 10:35:55;;;;;;;8.80;4.97;;;0.40;99.90;;;;;;5093746;28;20373;-50
2023/03/08 10:38:22;;;;;;;8.47;4.77;;;0.40;99.90;;;;;;5093250;28;20028;-49
2023/03/08 10:40:48;;;;;;;9.33;5.20;;;0.50;99.90;;;;;;5093379;28;20024;-48
2023/03/08 10:43:26;;;;;;;7.67;4.83;;;0.50;99.90;;;;;;5093612;28;20024;-49
2023/03/08 10:46:19;;;;;;;7.83;4.60;;;0.50;99.90;;;;;;5093377;28;20028;-52
2023/03/08 10:48:46;;;;;;;8.20;4.67;;;0.60;99.90;;;;;;5090221;28;20067;-48
2023/03/08 10:51:30;;;;;;;9.43;5.33;;;0.60;99.90;;;;;;5094017;22;20555;-52
2023/03/08 10:54:03;;;;;;;9.27;5.10;;;0.70;99.90;;;;;;5072556;28;20021;-56
2023/03/08 10:56:52;;;;;;;7.00;4.83;;;0.80;99.90;;;;;;5073118;28;20029;-54
2023/03/08 10:59:36;;;;;;;8.48;5.47;;;0.90;99.90;;;;;;5072853;28;20032;-54
2023/03/08 11:02:21;;;;;;;7.97;5.23;;;0.80;99.90;;;;;;5052037;28;20029;-56
2023/03/08 11:05:20;;;;;;;8.87;4.80;;;0.90;99.90;;;;;;5052516;28;20432;-54
2023/03/08 11:07:51;;;;;;;7.73;4.80;;;0.90;99.90;;;;;;5046972;28;20064;-51
2023/03/08 11:10:22;;;;;;;9.93;5.03;;;0.90;99.90;;;;;;5052564;28;20036;-55
2023/03/08 11:12:59;;;;;;;7.67;4.90;;;0.90;99.90;;;;;;5052627;28;20029;-56
2023/03/08 11:15:26;;;;;;;7.27;4.80;;;0.90;99.90;;;;;;5052734;28;20040;-54
2023/03/08 11:18:00;;;;;;;8.57;4.70;;;0.90;99.90;;;;;;5052317;28;20041;-55
2023/03/08 11:20:34;;;;;;;8.70;4.93;;;0.90;99.90;;;;;;5052329;28;20029;-53
2023/03/08 11:23:20;;;;;;;11.67;5.70;;;0.90;99.90;;;;;;5052955;28;20430;-54
2023/03/08 11:25:54;;;;;;;10.93;5.57;;;0.80;99.90;;;;;;5052484;28;20029;-51
2023/03/08 11:28:23;;;;;;;12.37;5.77;;;0.80;99.90;;;;;;5052215;28;20128;-52
2023/03/08 11:31:18;;;;;;;20.40;5.97;;;0.80;99.90;;;;;;5052189;28;20033;-51
2023/03/08 11:33:47;;;;;;;15.30;5.80;;;0.80;99.90;;;;;;5052457;28;20044;-53
2023/03/08 11:36:26;;;;;;;9.65;5.30;;;0.90;99.90;;;;;;5052267;28;20421;-52
2023/03/08 11:39:13;;;;;;;9.32;5.60;;;0.90;99.90;;;;;;5052059;28;20041;-52
2023/03/08 11:41:49;;;;;;;9.47;5.60;;;0.80;99.90;;;;;;5052078;28;20032;-49
2023/03/08 11:44:25;;;;;;;10.13;5.97;;;0.80;99.90;;;;;;5051763;28;20032;-55
2023/03/08 11:47:06;;;;;;;10.63;5.40;;;0.70;99.90;;;;;;5051817;28;20032;-54
2023/03/08 11:49:50;;;;;;;11.10;5.97;;;0.70;99.90;;;;;;5051808;28;20477;-54
2023/03/08 11:52:34;;;;;;;8.87;5.63;;;0.80;99.90;;;;;;5051917;28;20028;-52
2023/03/08 11:55:04;;;;;;;9.53;5.30;;;0.80;99.90;;;;;;5051843;28;20060;-54
2023/03/08 11:57:40;;;;;;;10.68;6.30;;;0.80;99.90;;;;;;5051602;28;20031;-54
2023/03/08 12:00:32;;;;;;;8.50;5.00;;;0.90;99.90;;;;;;5051666;28;20025;-53
2023/03/08 12:03:05;;;;;;;9.67;6.07;;;0.90;99.90;;;;;;5046974;28;20037;-50
2023/03/08 12:05:39;;;;;;;8.77;5.50;;;0.90;99.90;;;;;;5051754;28;20051;-54
2023/03/08 12:08:19;;;;;;;12.43;5.63;;;0.90;99.90;;;;;;5051429;28;20036;-51
2023/03/08 12:10:53;;;;;;;9.77;5.90;;;0.80;99.90;;;;;;5051919;28;20049;-51
2023/03/08 12:13:30;;;;;;;13.30;7.43;;;0.80;99.90;;;;;;5051205;28;20465;-51
2023/03/08 12:16:05;;;;;;;11.80;7.57;;;0.80;99.90;;;;;;5051872;28;20052;-50
2023/03/08 12:18:36;;;;;;;13.30;7.50;;;0.80;99.90;;;;;;5033403;28;20404;-50
2023/03/08 12:21:39;;;;;;;12.30;7.57;;;0.90;99.90;;;;;;5051692;28;20103;-52
2023/03/08 12:24:30;;;;;;;10.37;6.50;;;0.90;99.90;;;;;;5050986;28;20037;-48
2023/03/08 12:27:09;;;;;;;9.47;6.00;;;0.90;99.90;;;;;;5051269;28;20017;-52
2023/03/08 12:29:42;;;;;;;10.80;6.30;;;0.90;99.90;;;;;;5051715;28;20037;-50
2023/03/08 12:32:10;;;;;;;8.97;6.00;;;0.90;99.90;;;;;;5051131;28;20083;-51
2023/03/08 12:34:39;;;;;;;8.90;6.00;;;0.90;99.90;;;;;;5033182;28;20037;-51
2023/03/08 12:37:28;;;;;;;10.93;6.63;;;0.90;99.90;;;;;;5051234;28;20036;-54
2023/03/08 12:40:00;;;;;;;10.40;6.40;;;1.00;99.90;;;;;;5051052;28;20033;-53
2023/03/08 12:42:34;;;;;;;9.63;6.67;;;1.10;99.90;;;;;;5051152;28;20032;-52
2023/03/08 12:45:18;;;;;;;12.97;7.10;;;1.10;99.90;;;;;;5050893;28;20033;-49
2023/03/08 12:47:55;;;;;;;8.63;6.17;;;1.10;99.90;;;;;;5050981;28;20477;-49
2023/03/08 12:50:23;;;;;;;11.47;6.70;;;1.20;99.90;;;;;;5050960;28;20033;-50
2023/03/08 12:52:49;;;;;;;8.87;6.47;;;1.30;99.90;;;;;;5051029;28;20052;-50
2023/03/08 12:55:30;;;;;;;8.77;6.13;;;1.30;99.90;;;;;;5050645;28;20037;-54
2023/03/08 12:57:59;;;;;;;9.10;6.30;;;1.30;99.90;;;;;;5050780;28;20036;-50
2023/03/08 13:00:26;;;;;;;9.57;6.63;;;1.30;99.90;;;;;;5051094;28;20275;-50